createdAt,value
2022-12-14T00:00:04.630Z,97486.34
2022-12-14T00:02:31.216Z,97484.38
2022-12-14T00:04:57.674Z,97477.44
2022-12-14T00:07:24.090Z,97485.28
2022-12-14T00:09:50.435Z,97482.94
2022-12-14T00:12:16.859Z,97469.41
2022-12-14T00:14:43.200Z,97465.22
2022-12-14T00:17:09.588Z,97459.41
2022-12-14T00:19:36.195Z,97452.75
2022-12-14T00:22:02.762Z,97449.78
2022-12-14T00:24:29.203Z,97451.00
2022-12-14T00:26:55.587Z,97444.84
2022-12-14T00:29:22.015Z,97442.50
2022-12-14T00:31:49.572Z,97438.28
2022-12-14T00:34:16.033Z,97427.44
2022-12-14T00:36:42.564Z,97419.88
2022-12-14T00:39:09.022Z,97414.88
2022-12-14T00:41:35.440Z,97412.91
2022-12-14T00:44:01.996Z,97403.56
2022-12-14T00:46:28.484Z,97417.84
2022-12-14T00:48:54.859Z,97421.03
2022-12-14T00:51:21.215Z,97406.72
2022-12-14T00:53:47.621Z,97400.56
2022-12-14T00:56:13.994Z,97406.13
2022-12-14T00:58:40.526Z,97403.75
2022-12-14T01:01:10.215Z,97402.88
2022-12-14T01:03:36.842Z,97397.53
2022-12-14T01:06:03.742Z,97388.00
2022-12-14T01:08:30.589Z,97399.97
2022-12-14T01:10:56.911Z,97411.66
2022-12-14T01:13:23.304Z,97409.72
2022-12-14T01:15:49.866Z,97442.69
2022-12-14T01:18:16.754Z,97438.91
2022-12-14T01:20:43.407Z,97450.63
2022-12-14T01:23:09.825Z,97447.16
2022-12-14T01:25:36.278Z,97430.78
2022-12-14T01:28:02.678Z,97426.38
2022-12-14T01:30:29.326Z,97412.84
2022-12-14T01:32:55.695Z,97400.44
2022-12-14T01:35:22.307Z,97408.34
2022-12-14T01:37:49.124Z,97387.75
2022-12-14T01:40:16.118Z,97397.66
2022-12-14T01:42:42.484Z,97394.69
2022-12-14T01:45:19.358Z,97392.78
2022-12-14T01:47:53.719Z,97409.03
2022-12-14T01:50:34.267Z,97409.66
2022-12-14T01:53:12.043Z,97424.75
2022-12-14T01:55:42.720Z,97421.56
2022-12-14T01:58:24.174Z,97414.59
2022-12-14T02:00:54.496Z,97410.81
2022-12-14T02:03:28.778Z,97409.31
2022-12-14T02:06:07.004Z,97387.13
2022-12-14T02:08:33.671Z,97369.06
2022-12-14T02:11:02.122Z,97369.44
2022-12-14T02:13:34.172Z,97361.47
2022-12-14T02:16:01.089Z,97359.50
2022-12-14T02:18:30.359Z,97357.84
2022-12-14T02:21:17.974Z,97360.03
2022-12-14T02:24:09.208Z,97370.44
2022-12-14T02:26:54.925Z,97360.03
2022-12-14T02:29:43.432Z,97351.78
2022-12-14T02:32:24.761Z,97365.31
2022-12-14T02:35:01.347Z,97367.03
2022-12-14T02:37:27.748Z,97366.88
2022-12-14T02:40:12.351Z,97363.56
2022-12-14T02:42:54.420Z,97352.22
2022-12-14T02:45:30.969Z,97354.28
2022-12-14T02:48:06.946Z,97341.75
2022-12-14T02:50:48.361Z,97342.25
2022-12-14T02:53:20.458Z,97325.03
2022-12-14T02:55:57.724Z,97335.09
2022-12-14T02:58:29.203Z,97337.22
2022-12-14T03:00:56.754Z,97339.19
2022-12-14T03:03:23.952Z,97344.56
2022-12-14T03:06:02.336Z,97343.88
2022-12-14T03:08:33.360Z,97343.97
2022-12-14T03:11:06.223Z,97348.06
2022-12-14T03:13:32.618Z,97352.53
2022-12-14T03:16:14.709Z,97349.34
2022-12-14T03:18:45.874Z,97359.22
2022-12-14T03:21:16.697Z,97360.03
2022-12-14T03:23:45.500Z,97353.81
2022-12-14T03:26:21.676Z,97352.81
2022-12-14T03:28:53.777Z,97360.38
2022-12-14T03:31:49.147Z,97351.97
2022-12-14T03:34:19.206Z,97365.72
2022-12-14T03:36:54.053Z,97364.16
2022-12-14T03:39:29.394Z,97360.50
2022-12-14T03:42:21.305Z,97355.28
2022-12-14T03:45:22.962Z,97363.78
2022-12-14T03:47:55.467Z,97370.25
2022-12-14T03:50:30.970Z,97351.47
2022-12-14T03:53:07.262Z,97335.59
2022-12-14T03:55:41.398Z,97340.31
2022-12-14T03:58:35.902Z,97318.44
2022-12-14T04:01:14.175Z,97298.13
2022-12-14T04:03:56.331Z,97308.66
2022-12-14T04:06:41.179Z,97316.63
2022-12-14T04:09:36.850Z,97322.84
2022-12-14T04:12:29.125Z,97313.44
2022-12-14T04:15:03.323Z,97296.63
2022-12-14T04:17:34.262Z,97293.00
2022-12-14T04:20:24.389Z,97285.94
2022-12-14T04:23:02.442Z,97295.81
2022-12-14T04:25:35.388Z,97277.47
2022-12-14T04:28:20.254Z,97279.22
2022-12-14T04:30:46.843Z,97278.56
2022-12-14T04:33:14.515Z,97270.28
2022-12-14T04:35:42.624Z,97275.72
2022-12-14T04:38:35.031Z,97252.78
2022-12-14T04:41:06.987Z,97241.94
2022-12-14T04:43:38.887Z,97227.97
2022-12-14T04:46:07.195Z,97223.28
2022-12-14T04:48:47.262Z,97227.09
2022-12-14T04:51:30.370Z,97225.38
2022-12-14T04:54:08.853Z,97223.75
2022-12-14T04:56:51.326Z,97230.91
2022-12-14T04:59:17.796Z,97232.00
2022-12-14T05:02:06.237Z,97228.88
2022-12-14T05:04:46.779Z,97217.25
2022-12-14T05:07:51.638Z,97213.56
2022-12-14T05:10:30.183Z,97206.41
2022-12-14T05:13:05.044Z,97216.53
2022-12-14T05:15:45.576Z,97207.00
2022-12-14T05:18:12.278Z,97214.97
2022-12-14T05:20:38.664Z,97209.59
2022-12-14T05:23:05.050Z,97209.72
2022-12-14T05:25:31.509Z,97200.94
2022-12-14T05:27:57.976Z,97206.97
2022-12-14T05:30:24.640Z,97210.78
2022-12-14T05:32:51.144Z,97203.97
2022-12-14T05:35:17.737Z,97200.38
2022-12-14T05:37:44.354Z,97185.16
2022-12-14T05:40:11.402Z,97185.28
2022-12-14T05:42:44.145Z,97188.22
2022-12-14T05:45:12.956Z,97187.00
2022-12-14T05:47:40.174Z,97183.06
2022-12-14T05:50:07.259Z,97179.75
2022-12-14T05:52:34.060Z,97177.47
2022-12-14T05:55:04.437Z,97182.84
2022-12-14T05:57:31.447Z,97185.19
2022-12-14T05:59:57.840Z,97176.53
2022-12-14T06:02:24.650Z,97182.56
2022-12-14T06:04:51.243Z,97180.13
2022-12-14T06:07:19.052Z,97172.50
2022-12-14T06:09:47.135Z,97162.63
2022-12-14T06:12:13.794Z,97162.78
2022-12-14T06:14:40.364Z,97157.19
2022-12-14T06:17:06.898Z,97152.13
2022-12-14T06:19:33.291Z,97164.72
2022-12-14T06:21:59.605Z,97169.44
2022-12-14T06:24:26.052Z,97163.03
2022-12-14T06:26:52.527Z,97164.22
2022-12-14T06:29:20.022Z,97161.09
2022-12-14T06:31:49.288Z,97165.13
2022-12-14T06:34:16.810Z,97158.06
2022-12-14T06:36:43.234Z,97155.06
2022-12-14T06:39:15.722Z,97154.06
2022-12-14T06:41:42.851Z,97147.72
2022-12-14T06:44:14.007Z,97154.44
2022-12-14T06:46:41.562Z,97166.38
2022-12-14T06:49:11.531Z,97176.69
2022-12-14T06:51:39.612Z,97169.16
2022-12-14T06:54:06.820Z,97169.44
2022-12-14T06:56:33.231Z,97166.22
2022-12-14T06:58:59.841Z,97152.84
2022-12-14T07:01:26.527Z,97144.63
2022-12-14T07:03:57.088Z,97140.75
2022-12-14T07:06:25.375Z,97128.47
2022-12-14T07:08:57.360Z,97124.56
2022-12-14T07:11:29.214Z,97123.25
2022-12-14T07:13:56.465Z,97137.97
2022-12-14T07:16:25.182Z,97126.38
2022-12-14T07:18:53.385Z,97133.53
2022-12-14T07:21:20.813Z,97128.16
2022-12-14T07:23:48.808Z,97139.13
2022-12-14T07:26:16.346Z,97144.88
2022-12-14T07:28:43.648Z,97151.06
2022-12-14T07:31:12.933Z,97142.41
2022-12-14T07:33:39.719Z,97145.34
2022-12-14T07:36:11.932Z,97129.34
2022-12-14T07:38:40.446Z,97129.34
2022-12-14T07:41:15.517Z,97122.31
2022-12-14T07:43:45.809Z,97115.28
2022-12-14T07:46:17.918Z,97103.69
2022-12-14T07:48:49.303Z,97111.75
2022-12-14T07:51:18.301Z,97104.09
2022-12-14T07:53:44.956Z,97108.31
2022-12-14T07:56:14.177Z,97113.06
2022-12-14T07:58:41.156Z,97104.41
2022-12-14T08:01:17.381Z,97099.16
2022-12-14T08:03:46.145Z,97096.88
2022-12-14T08:06:13.921Z,97098.84
2022-12-14T08:08:40.551Z,97098.06
2022-12-14T08:11:07.683Z,97092.50
2022-12-14T08:13:35.225Z,97095.13
2022-12-14T08:16:03.904Z,97086.97
2022-12-14T08:18:30.737Z,97082.06
2022-12-14T08:20:57.180Z,97089.91
2022-12-14T08:23:23.929Z,97090.41
2022-12-14T08:25:54.698Z,97086.81
2022-12-14T08:28:21.944Z,97078.44
2022-12-14T08:30:48.579Z,97060.13
2022-12-14T08:33:15.372Z,97066.81
2022-12-14T08:35:41.820Z,97061.28
2022-12-14T08:38:08.313Z,97062.09
2022-12-14T08:40:36.105Z,97061.44
2022-12-14T08:43:02.623Z,97055.53
2022-12-14T08:45:29.037Z,97045.22
2022-12-14T08:47:59.007Z,97052.25
2022-12-14T08:50:26.600Z,97055.88
2022-12-14T08:52:53.674Z,97056.69
2022-12-14T08:55:25.713Z,97068.31
2022-12-14T08:57:55.000Z,97086.00
2022-12-14T09:00:21.350Z,97087.78
2022-12-14T09:02:50.314Z,97083.38
2022-12-14T09:05:16.956Z,97089.44
2022-12-14T09:07:43.383Z,97090.56
2022-12-14T09:10:09.923Z,97083.53
2022-12-14T09:12:36.564Z,97072.38
2022-12-14T09:15:03.106Z,97083.19
2022-12-14T09:17:29.577Z,97076.78
2022-12-14T09:19:56.060Z,97076.78
2022-12-14T09:22:22.460Z,97078.09
2022-12-14T09:24:48.986Z,97080.09
2022-12-14T09:27:15.300Z,97096.13
2022-12-14T09:29:41.808Z,97107.25
2022-12-14T09:32:08.265Z,97100.38
2022-12-14T09:34:34.601Z,97102.84
2022-12-14T09:37:01.051Z,97096.28
2022-12-14T09:39:28.078Z,97102.00
2022-12-14T09:42:16.057Z,97102.84
2022-12-14T09:44:56.242Z,97109.22
2022-12-14T09:47:37.995Z,97147.88
2022-12-14T09:50:11.033Z,97190.78
2022-12-14T09:52:45.353Z,97203.19
2022-12-14T09:55:41.345Z,97215.34
2022-12-14T09:58:18.942Z,97230.88
2022-12-14T10:01:04.139Z,97251.03
2022-12-14T10:03:51.836Z,97279.84
2022-12-14T10:06:51.007Z,97294.56
2022-12-14T10:09:30.776Z,97321.22
2022-12-14T10:12:16.554Z,97335.41
2022-12-14T10:15:20.821Z,97354.38
2022-12-14T10:17:55.981Z,97357.88
2022-12-14T10:20:47.929Z,97362.47
2022-12-14T10:23:22.778Z,97364.56
2022-12-14T10:25:54.102Z,97379.00
2022-12-14T10:28:22.630Z,97384.84
2022-12-14T10:30:52.513Z,97388.47
2022-12-14T10:33:26.643Z,97385.38
2022-12-14T10:35:55.468Z,97388.72
2022-12-14T10:38:36.794Z,97378.38
2022-12-14T10:41:23.204Z,97385.69
2022-12-14T10:44:11.137Z,97383.38
2022-12-14T10:46:40.358Z,97382.13
2022-12-14T10:49:22.394Z,97382.00
2022-12-14T10:52:00.138Z,97375.69
2022-12-14T10:54:33.826Z,97369.00
2022-12-14T10:57:01.003Z,97366.94
2022-12-14T10:59:43.766Z,97361.03
2022-12-14T11:02:28.162Z,97354.34
2022-12-14T11:04:58.279Z,97348.13
2022-12-14T11:07:33.706Z,97343.53
2022-12-14T11:10:27.854Z,97318.25
2022-12-14T11:13:12.757Z,97304.63
2022-12-14T11:15:45.128Z,97298.56
2022-12-14T11:18:17.913Z,97296.47
2022-12-14T11:20:59.843Z,97291.38
2022-12-14T11:23:30.691Z,97298.25
2022-12-14T11:25:58.334Z,97306.78
2022-12-14T11:28:37.392Z,97313.03
2022-12-14T11:31:14.214Z,97306.16
2022-12-14T11:33:50.317Z,97310.56
2022-12-14T11:36:34.030Z,97317.94
2022-12-14T11:39:01.615Z,97321.56
2022-12-14T11:41:36.663Z,97315.63
2022-12-14T11:44:23.485Z,97312.72
2022-12-14T11:46:53.920Z,97325.81
2022-12-14T11:49:47.919Z,97324.03
2022-12-14T11:52:15.888Z,97321.56
2022-12-14T11:54:49.876Z,97328.44
2022-12-14T11:57:30.513Z,97324.19
2022-12-14T12:00:20.536Z,97317.28
2022-12-14T12:03:39.696Z,97332.38
2022-12-14T12:06:09.621Z,97326.78
2022-12-14T12:08:39.633Z,97317.47
2022-12-14T12:11:24.333Z,97315.97
2022-12-14T12:13:56.933Z,97321.41
2022-12-14T12:16:26.596Z,97322.84
2022-12-14T12:19:11.641Z,97318.78
2022-12-14T12:21:43.879Z,97322.38
2022-12-14T12:24:20.693Z,97315.31
2022-12-14T12:27:02.899Z,97326.16
2022-12-14T12:29:35.271Z,97327.97
2022-12-14T12:32:10.325Z,97328.94
2022-12-14T12:34:45.829Z,97328.94
2022-12-14T12:37:31.268Z,97322.53
2022-12-14T12:40:03.494Z,97322.56
2022-12-14T12:42:45.325Z,97334.81
2022-12-14T12:45:27.177Z,97351.56
2022-12-14T12:48:01.567Z,97339.59
2022-12-14T12:50:35.939Z,97334.81
2022-12-14T12:53:17.273Z,97339.75
2022-12-14T12:55:55.271Z,97346.66
2022-12-14T12:58:32.195Z,97348.63
2022-12-14T13:01:04.632Z,97344.19
2022-12-14T13:03:42.352Z,97340.25
2022-12-14T13:06:21.874Z,97317.44
2022-12-14T13:08:53.387Z,97318.94
2022-12-14T13:11:27.008Z,97330.22
2022-12-14T13:14:00.350Z,97338.28
2022-12-14T13:16:34.972Z,97346.13
2022-12-14T13:19:50.243Z,97361.91
2022-12-14T13:22:27.775Z,97370.91
2022-12-14T13:24:59.484Z,97375.16
2022-12-14T13:27:53.641Z,97376.81
2022-12-14T13:30:43.056Z,97379.44
2022-12-14T13:33:41.176Z,97390.09
2022-12-14T13:36:45.707Z,97394.34
2022-12-14T13:39:22.602Z,97391.38
2022-12-14T13:42:07.243Z,97389.06
2022-12-14T13:44:44.708Z,97394.31
2022-12-14T13:47:15.366Z,97389.41
2022-12-14T13:50:05.192Z,97391.22
2022-12-14T13:52:43.150Z,97392.56
2022-12-14T13:55:31.036Z,97393.69
2022-12-14T13:58:34.700Z,97392.72
2022-12-14T14:01:04.770Z,97398.97
2022-12-14T14:03:34.010Z,97397.16
2022-12-14T14:06:01.587Z,97411.25
2022-12-14T14:08:39.324Z,97416.69
2022-12-14T14:11:36.569Z,97411.09
2022-12-14T14:14:18.412Z,97407.50
2022-12-14T14:16:50.026Z,97403.38
2022-12-14T14:19:22.143Z,97412.09
2022-12-14T14:22:26.597Z,97418.00
2022-12-14T14:25:00.951Z,97412.56
2022-12-14T14:27:50.793Z,97420.59
2022-12-14T14:30:32.746Z,97424.22
2022-12-14T14:33:20.426Z,97422.88
2022-12-14T14:35:49.800Z,97426.16
2022-12-14T14:38:30.950Z,97425.66
2022-12-14T14:41:18.804Z,97428.78
2022-12-14T14:43:55.582Z,97421.72
2022-12-14T14:46:34.680Z,97423.38
2022-12-14T14:49:01.582Z,97428.13
2022-12-14T14:51:33.109Z,97440.06
2022-12-14T14:54:46.277Z,97447.94
2022-12-14T14:57:52.705Z,97468.72
2022-12-14T15:00:19.251Z,97480.34
2022-12-14T15:02:46.302Z,97492.47
2022-12-14T15:05:41.565Z,97497.84
2022-12-14T15:08:11.640Z,97500.28
2022-12-14T15:10:42.794Z,97510.41
2022-12-14T15:13:20.705Z,97519.88
2022-12-14T15:15:52.069Z,97531.66
2022-12-14T15:18:25.745Z,97533.97
2022-12-14T15:21:12.639Z,97545.22
2022-12-14T15:23:44.097Z,97557.16
2022-12-14T15:26:23.588Z,97556.50
2022-12-14T15:28:52.546Z,97569.72
2022-12-14T15:31:28.730Z,97568.09
2022-12-14T15:33:56.087Z,97585.47
2022-12-14T15:36:33.350Z,97581.38
2022-12-14T15:39:00.088Z,97586.75
2022-12-14T15:41:29.946Z,97599.84
2022-12-14T15:44:00.118Z,97609.00
2022-12-14T15:46:33.533Z,97618.13
2022-12-14T15:49:04.346Z,97616.47
2022-12-14T15:51:34.493Z,97626.44
2022-12-14T15:54:03.387Z,97615.78
2022-12-14T15:56:44.750Z,97614.97
2022-12-14T15:59:18.288Z,97614.75
2022-12-14T16:01:53.524Z,97613.81
2022-12-14T16:04:23.327Z,97619.34
2022-12-14T16:07:01.712Z,97626.91
2022-12-14T16:09:40.201Z,97636.53
2022-12-14T16:12:18.337Z,97646.72
2022-12-14T16:14:53.823Z,97640.53
2022-12-14T16:17:28.226Z,97638.56
2022-12-14T16:20:09.404Z,97648.53
2022-12-14T16:22:41.337Z,97641.66
2022-12-14T16:25:07.721Z,97637.38
2022-12-14T16:27:39.844Z,97633.63
2022-12-14T16:30:17.329Z,97640.81
2022-12-14T16:32:49.801Z,97644.94
2022-12-14T16:35:23.206Z,97639.72
2022-12-14T16:37:52.476Z,97646.41
2022-12-14T16:40:32.137Z,97631.59
2022-12-14T16:42:58.724Z,97625.53
2022-12-14T16:46:00.413Z,97625.31
2022-12-14T16:48:26.930Z,97629.16
2022-12-14T16:51:28.628Z,97629.28
2022-12-14T16:54:02.645Z,97623.09
2022-12-14T16:56:45.058Z,97606.91
2022-12-14T16:59:48.475Z,97611.72
2022-12-14T17:02:30.149Z,97617.25
2022-12-14T17:04:58.622Z,97616.94
2022-12-14T17:07:27.552Z,97620.78
2022-12-14T17:09:54.617Z,97615.31
2022-12-14T17:12:21.120Z,97619.28
2022-12-14T17:14:49.993Z,97617.16
2022-12-14T17:17:22.394Z,97623.53
2022-12-14T17:19:49.216Z,97630.19
2022-12-14T17:22:21.972Z,97630.88
2022-12-14T17:24:48.407Z,97636.28
2022-12-14T17:27:17.517Z,97645.38
2022-12-14T17:29:44.531Z,97658.75
2022-12-14T17:32:12.993Z,97653.31
2022-12-14T17:34:39.910Z,97650.84
2022-12-14T17:37:17.175Z,97662.28
2022-12-14T17:39:44.575Z,97654.59
2022-12-14T17:42:13.371Z,97648.88
2022-12-14T17:44:41.883Z,97647.47
2022-12-14T17:47:13.318Z,97647.63
2022-12-14T17:49:40.404Z,97643.50
2022-12-14T17:52:07.555Z,97640.06
2022-12-14T17:54:34.277Z,97649.56
2022-12-14T17:57:01.160Z,97645.97
2022-12-14T17:59:28.084Z,97651.88
2022-12-14T18:01:54.612Z,97648.22
2022-12-14T18:04:21.052Z,97649.56
2022-12-14T18:06:47.472Z,97654.97
2022-12-14T18:09:14.004Z,97656.38
2022-12-14T18:12:00.165Z,97653.47
2022-12-14T18:14:26.910Z,97655.09
2022-12-14T18:16:53.370Z,97655.00
2022-12-14T18:19:20.092Z,97663.25
2022-12-14T18:21:46.728Z,97671.94
2022-12-14T18:24:15.351Z,97677.03
2022-12-14T18:26:41.947Z,97689.31
2022-12-14T18:29:08.337Z,97695.50
2022-12-14T18:31:37.433Z,97693.84
2022-12-14T18:34:04.680Z,97696.78
2022-12-14T18:36:31.446Z,97702.13
2022-12-14T18:38:57.839Z,97694.03
2022-12-14T18:41:26.132Z,97698.16
2022-12-14T18:43:52.805Z,97691.13
2022-12-14T18:46:19.272Z,97693.47
2022-12-14T18:48:46.102Z,97692.94
2022-12-14T18:51:14.273Z,97700.94
2022-12-14T18:53:40.942Z,97694.03
2022-12-14T18:56:09.520Z,97705.25
2022-12-14T18:58:36.482Z,97704.16
2022-12-14T19:01:03.082Z,97704.00
2022-12-14T19:03:32.560Z,97710.72
2022-12-14T19:06:34.761Z,97721.72
2022-12-14T19:08:51.827Z,97726.56
2022-12-14T19:11:31.386Z,97739.00
2022-12-14T19:13:58.318Z,97736.22
2022-12-14T19:16:25.100Z,97745.88
2022-12-14T19:18:51.931Z,97747.38
2022-12-14T19:21:19.022Z,97739.53
2022-12-14T19:23:47.409Z,97734.28
2022-12-14T19:26:14.141Z,97731.81
2022-12-14T19:28:40.500Z,97741.16
2022-12-14T19:31:10.309Z,97754.69
2022-12-14T19:33:37.225Z,97763.22
2022-12-14T19:36:08.387Z,97761.56
2022-12-14T19:38:35.650Z,97777.16
2022-12-14T19:41:06.594Z,97785.44
2022-12-14T19:43:34.420Z,97794.78
2022-12-14T19:46:06.170Z,97799.19
2022-12-14T19:48:32.679Z,97804.44
2022-12-14T19:51:03.537Z,97809.69
2022-12-14T19:53:33.898Z,97807.19
2022-12-14T19:56:00.555Z,97798.38
2022-12-14T19:58:28.260Z,97801.28
2022-12-14T20:00:54.904Z,97803.06
2022-12-14T20:03:22.441Z,97803.91
2022-12-14T20:05:57.353Z,97809.97
2022-12-14T20:08:24.503Z,97811.03
2022-12-14T20:10:52.145Z,97810.34
2022-12-14T20:13:18.844Z,97810.63
2022-12-14T20:15:51.213Z,97797.13
2022-12-14T20:18:18.350Z,97797.94
2022-12-14T20:20:45.668Z,97799.72
2022-12-14T20:23:16.396Z,97799.88
2022-12-14T20:25:42.922Z,97806.06
2022-12-14T20:28:09.423Z,97808.97
2022-12-14T20:30:41.322Z,97807.47
2022-12-14T20:33:07.652Z,97805.53
2022-12-14T20:35:34.184Z,97813.13
2022-12-14T20:38:00.564Z,97807.72
2022-12-14T20:40:27.127Z,97805.53
2022-12-14T20:42:54.251Z,97808.00
2022-12-14T20:45:20.663Z,97807.34
2022-12-14T20:47:47.209Z,97808.69
2022-12-14T20:50:13.710Z,97813.66
2022-12-14T20:52:40.279Z,97813.53
2022-12-14T20:55:07.179Z,97809.22
2022-12-14T20:57:33.710Z,97807.44
2022-12-14T21:00:00.153Z,97810.91
2022-12-14T21:02:26.772Z,97818.88
2022-12-14T21:04:53.447Z,97823.28
2022-12-14T21:07:24.381Z,97827.28
2022-12-14T21:09:53.356Z,97822.84
2022-12-14T21:12:19.658Z,97819.56
2022-12-14T21:14:46.567Z,97824.66
2022-12-14T21:17:15.091Z,97822.19
2022-12-14T21:19:41.692Z,97818.59
2022-12-14T21:22:12.183Z,97815.84
2022-12-14T21:27:28.336Z,97811.31
2022-12-14T21:29:54.727Z,97809.22
2022-12-14T21:32:22.130Z,97810.06
2022-12-14T21:34:49.378Z,97820.81
2022-12-14T21:37:16.096Z,97816.13
2022-12-14T21:39:51.929Z,97828.97
2022-12-14T21:42:20.251Z,97831.06
2022-12-14T21:44:48.788Z,97834.38
2022-12-14T21:47:24.650Z,97840.25
2022-12-14T21:49:51.321Z,97846.47
2022-12-14T21:52:20.419Z,97836.53
2022-12-14T21:54:46.928Z,97841.50
2022-12-14T21:57:24.115Z,97843.16
2022-12-14T21:59:50.659Z,97842.88
2022-12-14T22:02:20.208Z,97839.28
2022-12-14T22:04:47.181Z,97847.16
2022-12-14T22:07:20.540Z,97848.44
2022-12-14T22:09:49.677Z,97851.72
2022-12-14T22:12:18.431Z,97849.63
2022-12-14T22:14:44.814Z,97849.78
2022-12-14T22:17:12.783Z,97860.09
2022-12-14T22:19:39.207Z,97859.16
2022-12-14T22:22:05.796Z,97847.28
2022-12-14T22:24:32.321Z,97850.59
2022-12-14T22:26:58.973Z,97857.63
2022-12-14T22:29:27.092Z,97851.44
2022-12-14T22:31:53.600Z,97855.16
2022-12-14T22:34:22.451Z,97851.06
2022-12-14T22:36:50.269Z,97847.88
2022-12-14T22:39:18.134Z,97844.03
2022-12-14T22:41:44.725Z,97839.09
2022-12-14T22:44:12.288Z,97840.72
2022-12-14T22:46:41.462Z,97841.13
2022-12-14T22:49:08.344Z,97838.25
2022-12-14T22:51:34.807Z,97839.47
2022-12-14T22:54:01.180Z,97841.81
2022-12-14T22:56:42.083Z,97841.00
2022-12-14T22:59:20.434Z,97837.41
2022-12-14T23:01:49.647Z,97836.72
2022-12-14T23:04:17.536Z,97843.06
2022-12-14T23:06:44.859Z,97842.09
2022-12-14T23:09:11.272Z,97836.84
2022-12-14T23:11:37.695Z,97848.03
2022-12-14T23:14:04.178Z,97848.03
2022-12-14T23:16:30.501Z,97846.50
2022-12-14T23:18:56.901Z,97848.44
2022-12-14T23:21:23.256Z,97853.41
2022-12-14T23:23:49.680Z,97849.97
2022-12-14T23:26:16.119Z,97859.88
2022-12-14T23:28:42.523Z,97860.16
2022-12-14T23:31:10.790Z,97867.47
2022-12-14T23:33:37.812Z,97860.88
2022-12-14T23:36:04.578Z,97856.44
2022-12-14T23:38:30.914Z,97860.16
2022-12-14T23:41:01.956Z,97855.91
2022-12-14T23:43:28.837Z,97849.97
2022-12-14T23:45:55.710Z,97847.88
2022-12-14T23:48:22.373Z,97837.56
2022-12-14T23:50:48.891Z,97834.81
2022-12-14T23:53:15.537Z,97837.97
2022-12-14T23:55:42.249Z,97840.84
2022-12-14T23:58:08.618Z,97852.03
